createdAt,value
2018-03-04T00:00:31.007Z,76.49
2018-03-04T00:01:31.422Z,76.58
2018-03-04T00:02:31.840Z,76.68
2018-03-04T00:03:32.267Z,76.77
2018-03-04T00:04:32.667Z,77.25
2018-03-04T00:05:33.078Z,77.15
2018-03-04T00:06:33.496Z,77.25
2018-03-04T00:07:33.920Z,77.06
2018-03-04T00:08:34.323Z,77.06
2018-03-04T00:09:34.729Z,77.25
2018-03-04T00:10:35.142Z,77.34
2018-03-04T00:11:35.558Z,77.53
2018-03-04T00:12:35.971Z,77.25
2018-03-04T00:13:36.407Z,77.72
2018-03-04T00:14:36.798Z,77.62
2018-03-04T00:15:37.207Z,78.00
2018-03-04T00:16:37.622Z,77.53
2018-03-04T00:17:38.037Z,77.72
2018-03-04T00:18:38.447Z,78.38
2018-03-04T00:19:38.865Z,78.38
2018-03-04T00:20:39.280Z,78.09
2018-03-04T00:21:39.724Z,78.00
2018-03-04T00:22:40.110Z,77.91
2018-03-04T00:23:40.516Z,78.19
2018-03-04T00:24:40.947Z,78.15
2018-03-04T00:25:41.349Z,78.09
2018-03-04T00:26:41.759Z,78.00
2018-03-04T00:27:42.273Z,78.38
2018-03-04T00:28:42.583Z,78.24
2018-03-04T00:29:42.996Z,78.34
2018-03-04T00:30:43.412Z,78.28
2018-03-04T00:31:43.821Z,78.05
2018-03-04T00:32:44.240Z,78.15
2018-03-04T00:33:44.653Z,78.15
2018-03-04T00:34:45.056Z,77.96
2018-03-04T00:35:45.479Z,78.05
2018-03-04T00:36:45.892Z,78.15
2018-03-04T00:37:46.303Z,77.86
2018-03-04T00:38:46.717Z,78.19
2018-03-04T00:39:47.127Z,78.09
2018-03-04T00:40:47.546Z,77.96
2018-03-04T00:41:47.955Z,78.00
2018-03-04T00:42:48.459Z,78.75
2018-03-04T00:43:48.794Z,78.71
2018-03-04T00:44:49.211Z,78.62
2018-03-04T00:45:49.605Z,78.75
2018-03-04T00:46:50.035Z,78.43
2018-03-04T00:47:50.529Z,78.81
2018-03-04T00:48:50.845Z,78.94
2018-03-04T00:49:51.261Z,78.81
2018-03-04T00:50:51.674Z,78.81
2018-03-04T00:51:52.085Z,78.62
2018-03-04T00:52:52.498Z,78.71
2018-03-04T00:53:52.918Z,79.00
2018-03-04T00:54:53.329Z,79.19
2018-03-04T00:55:53.744Z,78.71
2018-03-04T00:56:54.150Z,78.90
2018-03-04T00:57:54.575Z,79.47
2018-03-04T00:58:54.979Z,78.90
2018-03-04T00:59:55.391Z,79.09
2018-03-04T01:00:55.808Z,79.00
2018-03-04T01:01:56.217Z,79.09
2018-03-04T01:02:56.634Z,78.90
2018-03-04T01:03:57.039Z,79.56
2018-03-04T01:04:57.456Z,78.71
2018-03-04T01:05:57.870Z,78.71
2018-03-04T01:06:58.285Z,78.90
2018-03-04T01:07:58.699Z,78.90
2018-03-04T01:08:59.110Z,79.19
2018-03-04T01:09:59.527Z,78.71
2018-03-04T01:10:59.937Z,78.71
2018-03-04T01:12:00.409Z,78.90
2018-03-04T01:13:00.760Z,78.90
2018-03-04T01:14:01.179Z,79.19
2018-03-04T01:15:01.602Z,78.90
2018-03-04T01:16:02.033Z,79.00
2018-03-04T01:17:02.416Z,79.56
2018-03-04T01:18:02.873Z,79.66
2018-03-04T01:19:03.244Z,79.56
2018-03-04T01:20:03.655Z,79.75
2018-03-04T01:21:04.063Z,79.66
2018-03-04T01:22:04.477Z,79.09
2018-03-04T01:23:04.893Z,79.19
2018-03-04T01:24:05.303Z,79.09
2018-03-04T01:25:05.720Z,79.00
2018-03-04T01:26:06.137Z,79.28
2018-03-04T01:27:06.553Z,79.28
2018-03-04T01:28:06.955Z,79.00
2018-03-04T01:29:07.369Z,79.37
2018-03-04T01:30:07.784Z,79.19
2018-03-04T01:31:08.197Z,79.00
2018-03-04T01:32:08.612Z,78.81
2018-03-04T01:33:09.030Z,79.00
2018-03-04T01:34:09.432Z,79.09
2018-03-04T01:35:09.858Z,79.00
2018-03-04T01:36:10.285Z,78.90
2018-03-04T01:37:10.674Z,79.00
2018-03-04T01:38:11.114Z,78.90
2018-03-04T01:39:11.508Z,79.28
2018-03-04T01:40:11.949Z,79.28
2018-03-04T01:41:12.331Z,79.19
2018-03-04T01:42:12.747Z,78.81
2018-03-04T01:43:13.159Z,79.47
2018-03-04T01:44:13.571Z,79.09
2018-03-04T01:45:13.999Z,79.19
2018-03-04T01:46:14.410Z,79.00
2018-03-04T01:47:14.816Z,79.75
2018-03-04T01:48:15.216Z,79.75
2018-03-04T01:49:15.630Z,79.94
2018-03-04T01:50:16.044Z,79.94
2018-03-04T01:51:16.514Z,79.75
2018-03-04T01:52:16.875Z,79.75
2018-03-04T01:53:17.280Z,79.56
2018-03-04T01:54:17.699Z,79.47
2018-03-04T01:55:18.108Z,79.94
2018-03-04T01:56:18.522Z,80.13
2018-03-04T01:57:18.940Z,80.60
2018-03-04T01:58:19.350Z,80.22
2018-03-04T01:59:19.761Z,80.41
2018-03-04T02:00:20.171Z,80.41
2018-03-04T02:01:20.584Z,80.51
2018-03-04T02:02:21.000Z,80.41
2018-03-04T02:03:21.409Z,80.60
2018-03-04T02:04:21.825Z,81.07
2018-03-04T02:05:22.247Z,81.26
2018-03-04T02:06:22.656Z,81.16
2018-03-04T02:07:23.060Z,81.07
2018-03-04T02:08:23.490Z,81.07
2018-03-04T02:09:23.887Z,81.07
2018-03-04T02:10:24.303Z,81.35
2018-03-04T02:11:24.714Z,81.07
2018-03-04T02:12:25.128Z,81.16
2018-03-04T02:13:25.542Z,81.45
2018-03-04T02:14:25.950Z,81.35
2018-03-04T02:15:26.364Z,81.73
2018-03-04T02:16:26.781Z,81.82
2018-03-04T02:17:27.188Z,81.73
2018-03-04T02:18:27.614Z,81.92
2018-03-04T02:19:28.023Z,81.92
2018-03-04T02:20:28.427Z,81.73
2018-03-04T02:21:28.842Z,81.82
2018-03-04T02:22:29.258Z,81.73
2018-03-04T02:23:29.671Z,81.82
2018-03-04T02:24:30.078Z,82.10
2018-03-04T02:25:30.501Z,81.92
2018-03-04T02:26:30.906Z,81.73
2018-03-04T02:27:31.318Z,81.92
2018-03-04T02:28:31.733Z,81.73
2018-03-04T02:29:32.277Z,82.20
2018-03-04T02:30:32.547Z,82.01
2018-03-04T02:31:32.976Z,82.67
2018-03-04T02:32:33.375Z,82.48
2018-03-04T02:33:33.796Z,82.39
2018-03-04T02:34:34.208Z,82.10
2018-03-04T02:35:34.618Z,82.29
2018-03-04T02:36:35.031Z,82.48
2018-03-04T02:37:35.450Z,82.39
2018-03-04T02:38:35.857Z,82.76
2018-03-04T02:39:36.275Z,82.58
2018-03-04T02:40:36.685Z,82.76
2018-03-04T02:41:37.091Z,82.39
2018-03-04T02:42:37.515Z,82.86
2018-03-04T02:43:37.926Z,82.67
2018-03-04T02:44:38.335Z,82.48
2018-03-04T02:45:38.740Z,82.67
2018-03-04T02:46:39.161Z,82.67
2018-03-04T02:47:39.571Z,82.48
2018-03-04T02:48:39.985Z,82.29
2018-03-04T02:49:40.394Z,82.48
2018-03-04T02:50:40.806Z,83.24
2018-03-04T02:51:41.223Z,83.05
2018-03-04T02:52:41.640Z,83.61
2018-03-04T02:53:42.055Z,83.24
2018-03-04T02:54:42.456Z,83.43
2018-03-04T02:55:42.869Z,83.43
2018-03-04T02:56:43.349Z,83.43
2018-03-04T02:57:43.702Z,83.99
2018-03-04T02:58:44.105Z,83.99
2018-03-04T02:59:44.522Z,83.90
2018-03-04T03:00:44.937Z,83.80
2018-03-04T03:01:45.351Z,83.43
2018-03-04T03:02:45.768Z,84.47
2018-03-04T03:03:46.171Z,84.37
2018-03-04T03:04:46.596Z,84.18
2018-03-04T03:05:47.005Z,84.37
2018-03-04T03:06:47.417Z,84.28
2018-03-04T03:07:47.821Z,84.18
2018-03-04T03:08:48.234Z,84.09
2018-03-04T03:09:48.640Z,84.09
2018-03-04T03:10:49.058Z,84.09
2018-03-04T03:11:49.471Z,84.47
2018-03-04T03:12:49.882Z,84.56
2018-03-04T03:13:50.300Z,84.28
2018-03-04T03:14:50.707Z,84.65
2018-03-04T03:15:51.126Z,84.65
2018-03-04T03:16:51.541Z,84.37
2018-03-04T03:17:51.945Z,84.65
2018-03-04T03:18:52.364Z,84.75
2018-03-04T03:19:52.772Z,84.56
2018-03-04T03:20:53.189Z,84.84
2018-03-04T03:21:53.596Z,84.47
2018-03-04T03:22:54.007Z,84.65
2018-03-04T03:23:54.418Z,84.56
2018-03-04T03:24:54.837Z,84.75
2018-03-04T03:25:55.252Z,84.56
2018-03-04T03:26:55.656Z,84.47
2018-03-04T03:27:56.070Z,84.56
2018-03-04T03:28:56.485Z,84.65
2018-03-04T03:29:56.934Z,84.84
2018-03-04T03:30:57.353Z,84.56
2018-03-04T03:31:57.721Z,84.56
2018-03-04T03:32:58.126Z,84.56
2018-03-04T03:33:58.542Z,84.65
2018-03-04T03:34:58.948Z,84.56
2018-03-04T03:35:59.369Z,84.84
2018-03-04T03:36:59.780Z,84.75
2018-03-04T03:38:00.205Z,84.65
2018-03-04T03:39:00.604Z,84.75
2018-03-04T03:40:01.055Z,84.47
2018-03-04T03:41:01.437Z,84.47
2018-03-04T03:42:01.852Z,84.56
2018-03-04T03:43:02.268Z,85.03
2018-03-04T03:44:02.664Z,84.94
2018-03-04T03:45:03.077Z,85.22
2018-03-04T03:46:03.489Z,85.31
2018-03-04T03:47:03.906Z,85.22
2018-03-04T03:48:04.315Z,85.03
2018-03-04T03:49:04.728Z,85.13
2018-03-04T03:50:05.141Z,85.03
2018-03-04T03:51:05.549Z,85.13
2018-03-04T03:52:05.972Z,85.22
2018-03-04T03:53:06.387Z,85.13
2018-03-04T03:54:06.794Z,85.50
2018-03-04T03:55:07.207Z,85.78
2018-03-04T03:56:07.622Z,85.31
2018-03-04T03:57:08.018Z,85.31
2018-03-04T03:58:08.448Z,85.31
2018-03-04T03:59:08.844Z,85.22
2018-03-04T04:00:09.265Z,86.16
2018-03-04T04:01:09.672Z,85.78
2018-03-04T04:02:10.092Z,85.41
2018-03-04T04:03:10.515Z,85.60
2018-03-04T04:04:10.920Z,85.60
2018-03-04T04:05:11.328Z,85.50
2018-03-04T04:06:11.746Z,85.60
2018-03-04T04:07:12.161Z,85.78
2018-03-04T04:08:12.560Z,85.50
2018-03-04T04:09:12.971Z,85.78
2018-03-04T04:10:13.384Z,86.07
2018-03-04T04:11:13.798Z,85.88
2018-03-04T04:12:14.216Z,85.88
2018-03-04T04:13:14.622Z,86.54
2018-03-04T04:14:15.030Z,86.54
2018-03-04T04:15:15.452Z,86.25
2018-03-04T04:16:15.864Z,86.44
2018-03-04T04:17:16.285Z,86.35
2018-03-04T04:18:16.679Z,86.54
2018-03-04T04:19:17.097Z,86.35
2018-03-04T04:20:17.509Z,86.63
2018-03-04T04:21:17.922Z,86.54
2018-03-04T04:22:18.334Z,86.72
2018-03-04T04:23:18.749Z,86.63
2018-03-04T04:24:19.174Z,86.72
2018-03-04T04:25:19.567Z,86.72
2018-03-04T04:26:19.980Z,86.72
2018-03-04T04:27:20.395Z,86.82
2018-03-04T04:28:20.813Z,86.91
2018-03-04T04:29:21.225Z,86.91
2018-03-04T04:30:21.644Z,86.82
2018-03-04T04:31:22.044Z,87.01
2018-03-04T04:32:22.471Z,87.01
2018-03-04T04:33:22.867Z,86.63
2018-03-04T04:34:23.279Z,86.91
2018-03-04T04:35:23.690Z,86.82
2018-03-04T04:36:24.107Z,86.91
2018-03-04T04:37:24.512Z,87.10
2018-03-04T04:38:24.931Z,87.01
2018-03-04T04:39:25.338Z,86.63
2018-03-04T04:40:25.758Z,86.82
2018-03-04T04:41:26.164Z,86.91
2018-03-04T04:42:26.579Z,86.91
2018-03-04T04:43:26.987Z,87.10
2018-03-04T04:44:27.423Z,87.29
2018-03-04T04:45:27.821Z,86.82
2018-03-04T04:46:28.232Z,86.91
2018-03-04T04:47:28.645Z,87.19
2018-03-04T04:48:29.048Z,86.72
2018-03-04T04:49:29.486Z,87.38
2018-03-04T04:50:29.881Z,87.38
2018-03-04T04:51:30.288Z,87.76
2018-03-04T04:52:30.696Z,87.67
2018-03-04T04:53:31.110Z,87.38
2018-03-04T04:54:31.531Z,87.57
2018-03-04T04:55:31.936Z,87.67
2018-03-04T04:56:32.351Z,87.48
2018-03-04T04:57:32.763Z,88.04
2018-03-04T04:58:33.185Z,87.95
2018-03-04T04:59:33.582Z,88.42
2018-03-04T05:00:34.002Z,88.33
2018-03-04T05:01:34.401Z,88.23
2018-03-04T05:02:34.818Z,87.86
2018-03-04T05:03:35.237Z,88.33
2018-03-04T05:04:35.648Z,88.33
2018-03-04T05:05:36.063Z,88.33
2018-03-04T05:06:36.471Z,88.33
2018-03-04T05:08:37.293Z,88.23
2018-03-04T05:09:37.706Z,88.57
2018-03-04T05:10:38.389Z,88.23
2018-03-04T05:11:38.527Z,88.38
2018-03-04T05:12:38.940Z,88.71
2018-03-04T05:13:39.351Z,88.71
2018-03-04T05:14:39.771Z,88.89
2018-03-04T05:15:40.174Z,88.61
2018-03-04T05:16:40.586Z,88.52
2018-03-04T05:17:40.993Z,88.42
2018-03-04T05:18:41.417Z,89.27
2018-03-04T05:19:41.824Z,89.08
2018-03-04T05:20:42.234Z,89.27
2018-03-04T05:21:42.643Z,89.08
2018-03-04T05:22:43.066Z,89.04
2018-03-04T05:23:43.466Z,89.04
2018-03-04T05:24:43.880Z,89.13
2018-03-04T05:25:44.298Z,89.23
2018-03-04T05:26:44.782Z,89.70
2018-03-04T05:27:45.128Z,89.46
2018-03-04T05:28:45.599Z,89.13
2018-03-04T05:29:45.972Z,89.65
2018-03-04T05:30:46.361Z,89.23
2018-03-04T05:31:46.770Z,89.93
2018-03-04T05:32:47.174Z,89.65
2018-03-04T05:33:47.589Z,90.03
2018-03-04T05:34:48.004Z,89.56
2018-03-04T05:35:48.417Z,89.84
2018-03-04T05:36:48.828Z,89.79
2018-03-04T05:37:49.236Z,89.70
2018-03-04T05:38:49.651Z,89.56
2018-03-04T05:39:50.065Z,89.70
2018-03-04T05:40:50.481Z,89.70
2018-03-04T05:41:50.891Z,89.61
2018-03-04T05:42:51.295Z,89.89
2018-03-04T05:43:51.710Z,90.08
2018-03-04T05:44:52.125Z,89.98
2018-03-04T05:45:52.536Z,89.79
2018-03-04T05:46:52.942Z,90.36
2018-03-04T05:47:53.359Z,90.41
2018-03-04T05:48:53.764Z,90.08
2018-03-04T05:49:54.181Z,90.26
2018-03-04T05:50:54.587Z,90.26
2018-03-04T05:51:55.002Z,89.89
2018-03-04T05:52:55.441Z,90.92
2018-03-04T05:53:55.830Z,90.45
2018-03-04T05:54:56.236Z,90.64
2018-03-04T05:55:56.652Z,90.73
2018-03-04T05:56:57.064Z,90.64
2018-03-04T05:57:57.474Z,90.64
2018-03-04T05:58:57.886Z,90.45
2018-03-04T05:59:58.296Z,91.02
2018-03-04T06:00:58.710Z,90.83
2018-03-04T06:01:59.119Z,91.11
2018-03-04T06:02:59.532Z,91.02
2018-03-04T06:03:59.972Z,90.64
2018-03-04T06:05:00.363Z,90.92
2018-03-04T06:06:00.767Z,90.64
2018-03-04T06:07:01.179Z,90.64
2018-03-04T06:08:01.590Z,90.26
2018-03-04T06:09:02.043Z,90.31
2018-03-04T06:10:02.416Z,90.64
2018-03-04T06:11:02.834Z,90.83
2018-03-04T06:12:03.259Z,90.88
2018-03-04T06:13:03.653Z,90.26
2018-03-04T06:14:04.065Z,90.41
2018-03-04T06:15:04.476Z,90.59
2018-03-04T06:16:04.893Z,90.22
2018-03-04T06:17:05.308Z,90.59
2018-03-04T06:18:05.709Z,90.08
2018-03-04T06:19:06.120Z,90.31
2018-03-04T06:20:06.536Z,90.31
2018-03-04T06:21:06.951Z,90.26
2018-03-04T06:22:07.357Z,90.41
2018-03-04T06:23:07.772Z,90.03
2018-03-04T06:24:08.194Z,90.03
2018-03-04T06:25:08.601Z,90.31
2018-03-04T06:26:09.013Z,89.84
2018-03-04T06:27:09.419Z,89.93
2018-03-04T06:28:09.831Z,89.93
2018-03-04T06:29:10.261Z,89.93
2018-03-04T06:30:10.658Z,90.03
2018-03-04T06:31:11.275Z,90.12
2018-03-04T06:32:11.469Z,90.22
2018-03-04T06:33:11.895Z,89.56
2018-03-04T06:34:12.474Z,89.46
2018-03-04T06:35:12.711Z,89.46
2018-03-04T06:36:13.128Z,89.84
2018-03-04T06:37:13.540Z,89.84
2018-03-04T06:38:13.950Z,89.93
2018-03-04T06:39:14.364Z,89.84
2018-03-04T06:40:14.777Z,89.93
2018-03-04T06:41:15.186Z,89.65
2018-03-04T06:42:15.599Z,89.93
2018-03-04T06:43:16.068Z,90.03
2018-03-04T06:44:16.424Z,89.37
2018-03-04T06:45:16.838Z,89.56
2018-03-04T06:46:17.247Z,89.84
2018-03-04T06:47:17.661Z,89.08
2018-03-04T06:48:18.080Z,89.65
2018-03-04T06:49:18.493Z,89.46
2018-03-04T06:50:18.900Z,89.27
2018-03-04T06:51:19.309Z,89.08
2018-03-04T06:52:19.725Z,88.71
2018-03-04T06:53:20.140Z,88.61
2018-03-04T06:54:20.548Z,88.61
2018-03-04T06:55:20.957Z,88.61
2018-03-04T06:56:21.368Z,88.52
2018-03-04T06:57:21.785Z,88.33
2018-03-04T06:58:22.234Z,88.80
2018-03-04T06:59:22.617Z,88.42
2018-03-04T07:00:23.021Z,88.33
2018-03-04T07:01:23.430Z,88.14
2018-03-04T07:02:23.846Z,88.42
2018-03-04T07:03:24.260Z,88.04
2018-03-04T07:04:24.671Z,87.86
2018-03-04T07:05:25.094Z,87.67
2018-03-04T07:06:25.513Z,87.67
2018-03-04T07:07:25.904Z,87.38
2018-03-04T07:08:26.320Z,87.57
2018-03-04T07:09:27.061Z,87.01
2018-03-04T07:10:27.187Z,87.19
2018-03-04T07:11:27.557Z,87.29
2018-03-04T07:12:27.974Z,86.91
2018-03-04T07:13:28.380Z,86.54
2018-03-04T07:14:28.797Z,86.72
2018-03-04T07:15:29.213Z,86.44
2018-03-04T07:16:29.620Z,86.16
2018-03-04T07:17:30.030Z,86.25
2018-03-04T07:18:30.446Z,85.50
2018-03-04T07:19:30.854Z,85.50
2018-03-04T07:20:31.276Z,85.13
2018-03-04T07:21:31.684Z,84.56
2018-03-04T07:22:32.099Z,84.28
2018-03-04T07:23:32.522Z,84.37
2018-03-04T07:24:32.924Z,83.90
2018-03-04T07:25:33.346Z,83.61
2018-03-04T07:26:33.758Z,83.24
2018-03-04T07:27:34.158Z,83.05
2018-03-04T07:28:34.579Z,82.20
2018-03-04T07:29:34.989Z,81.77
2018-03-04T07:30:35.399Z,81.30
2018-03-04T07:31:35.814Z,80.64
2018-03-04T07:32:36.224Z,80.26
2018-03-04T07:33:36.639Z,80.07
2018-03-04T07:34:37.055Z,79.41
2018-03-04T07:35:37.473Z,79.41
2018-03-04T07:36:37.877Z,79.22
2018-03-04T07:37:38.292Z,78.66
2018-03-04T07:38:38.702Z,78.19
2018-03-04T07:39:39.118Z,78.00
2018-03-04T07:40:39.553Z,77.81
2018-03-04T07:41:39.948Z,77.44
2018-03-04T07:42:40.359Z,76.68
2018-03-04T07:43:40.776Z,76.40
2018-03-04T07:44:41.188Z,76.68
2018-03-04T07:45:41.607Z,76.87
2018-03-04T07:46:42.030Z,76.21
2018-03-04T07:47:42.436Z,75.54
2018-03-04T07:48:42.842Z,75.45
2018-03-04T07:49:43.260Z,75.07
2018-03-04T07:50:43.667Z,74.98
2018-03-04T07:51:44.084Z,74.88
2018-03-04T07:52:44.496Z,74.74
2018-03-04T07:53:44.917Z,74.36
2018-03-04T07:54:45.332Z,73.69
2018-03-04T07:55:45.737Z,73.51
2018-03-04T07:56:46.165Z,73.60
2018-03-04T07:57:46.568Z,73.13
2018-03-04T07:58:46.989Z,72.75
2018-03-04T07:59:47.406Z,72.56
2018-03-04T08:00:47.815Z,72.56
2018-03-04T08:01:48.231Z,72.00
2018-03-04T08:02:48.652Z,71.62
2018-03-04T08:03:49.067Z,71.34
2018-03-04T08:04:49.483Z,71.25
2018-03-04T08:05:49.894Z,70.96
2018-03-04T08:06:50.322Z,70.30
2018-03-04T08:07:50.721Z,70.20
2018-03-04T08:08:51.135Z,70.20
2018-03-04T08:09:51.551Z,69.92
2018-03-04T08:10:51.968Z,70.11
2018-03-04T08:11:52.388Z,70.39
2018-03-04T08:12:52.805Z,69.64
2018-03-04T08:13:53.225Z,69.83
2018-03-04T08:14:53.631Z,69.49
2018-03-04T08:15:54.058Z,68.82
2018-03-04T08:16:54.469Z,68.54
2018-03-04T08:17:54.880Z,67.50
2018-03-04T08:18:55.296Z,67.32
2018-03-04T08:19:55.711Z,67.41
2018-03-04T08:20:56.129Z,67.41
2018-03-04T08:21:56.546Z,67.32
2018-03-04T08:22:56.962Z,67.22
2018-03-04T08:23:57.377Z,68.63
2018-03-04T08:24:57.789Z,68.54
2018-03-04T08:25:58.206Z,68.63
2018-03-04T08:26:58.623Z,67.97
2018-03-04T08:27:59.048Z,67.32
2018-03-04T08:28:59.454Z,66.84
2018-03-04T08:29:59.874Z,66.65
2018-03-04T08:31:00.293Z,67.03
2018-03-04T08:32:00.714Z,66.56
2018-03-04T08:33:01.133Z,66.56
2018-03-04T08:34:01.617Z,66.18
2018-03-04T08:35:01.939Z,66.84
2018-03-04T08:36:02.374Z,66.65
2018-03-04T08:37:02.788Z,66.84
2018-03-04T08:38:03.208Z,66.56
2018-03-04T08:39:03.620Z,65.55
2018-03-04T08:40:04.040Z,65.74
2018-03-04T08:41:04.469Z,64.51
2018-03-04T08:42:04.874Z,63.38
2018-03-04T08:43:05.288Z,62.91
2018-03-04T08:44:05.712Z,61.71
2018-03-04T08:45:06.122Z,61.05
2018-03-04T08:46:06.550Z,60.58
2018-03-04T08:47:06.957Z,60.58
2018-03-04T08:48:07.379Z,59.38
2018-03-04T08:49:07.796Z,59.09
2018-03-04T08:50:08.220Z,58.06
2018-03-04T08:51:08.636Z,57.58
2018-03-04T08:52:09.058Z,57.77
2018-03-04T08:53:09.478Z,58.25
2018-03-04T08:54:09.904Z,58.53
2018-03-04T08:55:10.323Z,58.34
2018-03-04T08:56:10.749Z,57.58
2018-03-04T08:57:11.160Z,57.87
2018-03-04T08:58:11.601Z,57.11
2018-03-04T08:59:12.005Z,57.58
2018-03-04T09:00:12.436Z,57.20
2018-03-04T09:01:12.843Z,57.68
2018-03-04T09:02:13.270Z,57.01
2018-03-04T09:03:13.695Z,57.20
2018-03-04T09:04:14.111Z,56.35
2018-03-04T09:05:14.532Z,55.60
2018-03-04T09:06:14.972Z,55.88
2018-03-04T09:07:15.399Z,54.77
2018-03-04T09:08:15.806Z,54.30
2018-03-04T09:09:16.246Z,54.39
2018-03-04T09:10:16.650Z,53.26
2018-03-04T09:11:17.067Z,53.64
2018-03-04T09:12:17.487Z,53.26
2018-03-04T09:13:17.939Z,53.26
2018-03-04T09:14:18.357Z,52.98
2018-03-04T09:15:18.756Z,52.79
2018-03-04T09:16:19.182Z,53.14
2018-03-04T09:17:19.606Z,53.52
2018-03-04T09:18:20.028Z,54.27
2018-03-04T09:19:20.460Z,53.99
2018-03-04T09:20:20.875Z,54.21
2018-03-04T09:21:21.299Z,54.30
2018-03-04T09:22:21.716Z,52.62
2018-03-04T09:23:22.210Z,51.68
2018-03-04T09:24:22.571Z,51.20
2018-03-04T09:25:22.988Z,51.39
2018-03-04T09:26:23.412Z,51.39
2018-03-04T09:27:23.843Z,50.73
2018-03-04T09:28:24.267Z,50.26
2018-03-04T09:29:24.690Z,50.35
2018-03-04T09:30:25.109Z,50.26
2018-03-04T09:31:25.535Z,51.28
2018-03-04T09:32:25.962Z,51.93
2018-03-04T09:33:26.383Z,52.12
2018-03-04T09:34:26.801Z,52.98
2018-03-04T09:35:27.231Z,52.31
2018-03-04T09:36:27.650Z,52.03
2018-03-04T09:37:28.094Z,51.68
2018-03-04T09:38:28.522Z,50.54
2018-03-04T09:39:28.939Z,50.16
2018-03-04T09:40:29.354Z,50.45
2018-03-04T09:41:29.794Z,50.07
2018-03-04T09:42:30.204Z,49.60
2018-03-04T09:43:30.624Z,50.28
2018-03-04T09:44:31.077Z,49.24
2018-03-04T09:45:31.539Z,48.68
2018-03-04T09:46:31.903Z,48.39
2018-03-04T09:47:32.340Z,48.55
2018-03-04T09:48:32.769Z,49.88
2018-03-04T09:49:33.184Z,49.95
2018-03-04T09:50:33.603Z,50.35
2018-03-04T09:51:34.051Z,50.09
2018-03-04T09:52:34.456Z,48.68
2018-03-04T09:53:34.892Z,48.77
2018-03-04T09:54:35.308Z,48.74
2018-03-04T09:55:35.726Z,48.68
2018-03-04T09:56:36.164Z,48.77
2018-03-04T09:57:36.604Z,48.46
2018-03-04T09:58:37.050Z,48.68
2018-03-04T09:59:37.440Z,48.74
2018-03-04T10:00:37.875Z,48.74
2018-03-04T10:01:38.284Z,48.74
2018-03-04T10:02:38.720Z,49.69
2018-03-04T10:03:39.152Z,50.16
2018-03-04T10:04:39.659Z,50.26
2018-03-04T10:05:40.011Z,50.07
2018-03-04T10:06:40.424Z,50.26
2018-03-04T10:07:40.839Z,49.60
2018-03-04T10:08:41.286Z,49.41
2018-03-04T10:09:41.701Z,49.41
2018-03-04T10:10:42.119Z,49.50
2018-03-04T10:11:42.540Z,49.22
2018-03-04T10:12:42.970Z,49.60
2018-03-04T10:13:43.415Z,50.07
2018-03-04T10:14:43.817Z,50.16
2018-03-04T10:15:44.252Z,50.45
2018-03-04T10:16:44.671Z,50.73
2018-03-04T10:17:45.112Z,51.11
2018-03-04T10:18:45.529Z,50.63
2018-03-04T10:19:45.947Z,50.07
2018-03-04T10:20:46.375Z,51.32
2018-03-04T10:21:46.818Z,51.61
2018-03-04T10:22:47.218Z,49.24
2018-03-04T10:23:47.651Z,48.77
2018-03-04T10:24:48.075Z,49.12
2018-03-04T10:25:48.500Z,49.50
2018-03-04T10:26:48.926Z,50.28
2018-03-04T10:27:49.351Z,49.74
2018-03-04T10:28:49.776Z,47.94
2018-03-04T10:29:50.210Z,47.02
2018-03-04T10:30:50.626Z,46.54
2018-03-04T10:31:51.052Z,46.26
2018-03-04T10:32:51.477Z,45.69
2018-03-04T10:33:51.916Z,45.78
2018-03-04T10:34:52.375Z,45.59
2018-03-04T10:35:52.783Z,45.40
2018-03-04T10:36:53.191Z,44.65
2018-03-04T10:37:53.620Z,44.62
2018-03-04T10:38:54.045Z,45.57
2018-03-04T10:39:54.477Z,45.21
2018-03-04T10:40:54.910Z,45.19
2018-03-04T10:41:55.361Z,45.48
2018-03-04T10:42:55.771Z,46.12
2018-03-04T10:43:56.187Z,46.21
2018-03-04T10:44:56.630Z,47.28
2018-03-04T10:45:57.052Z,46.45
2018-03-04T10:46:57.472Z,45.69
2018-03-04T10:47:57.896Z,45.67
2018-03-04T10:48:58.323Z,45.31
2018-03-04T10:49:58.761Z,44.93
2018-03-04T10:50:59.180Z,44.43
2018-03-04T10:51:59.605Z,44.91
2018-03-04T10:53:00.036Z,44.93
2018-03-04T10:54:00.475Z,44.74
2018-03-04T10:55:00.893Z,44.36
2018-03-04T10:56:01.320Z,44.36
2018-03-04T10:57:01.763Z,44.46
2018-03-04T10:58:02.175Z,44.08
2018-03-04T10:59:02.614Z,44.20
2018-03-04T11:00:03.090Z,43.53
2018-03-04T11:01:03.467Z,42.68
2018-03-04T11:02:03.901Z,42.75
2018-03-04T11:03:04.338Z,43.41
2018-03-04T11:04:04.756Z,43.24
2018-03-04T11:05:05.183Z,42.77
2018-03-04T11:06:05.609Z,42.58
2018-03-04T11:07:06.047Z,42.58
2018-03-04T11:08:06.472Z,41.73
2018-03-04T11:09:06.904Z,41.85
2018-03-04T11:10:07.340Z,41.75
2018-03-04T11:11:07.761Z,40.97
2018-03-04T11:12:08.183Z,41.54
2018-03-04T11:13:08.623Z,41.92
2018-03-04T11:14:09.057Z,41.63
2018-03-04T11:15:09.478Z,42.77
2018-03-04T11:16:09.920Z,42.86
2018-03-04T11:17:10.378Z,42.85
2018-03-04T11:18:10.784Z,43.04
2018-03-04T11:19:11.200Z,43.05
2018-03-04T11:20:11.630Z,42.96
2018-03-04T11:21:12.063Z,42.20
2018-03-04T11:22:12.490Z,42.51
2018-03-04T11:23:12.924Z,40.99
2018-03-04T11:24:13.362Z,40.61
2018-03-04T11:25:13.823Z,40.80
2018-03-04T11:26:14.229Z,40.16
2018-03-04T11:27:14.662Z,39.68
2018-03-04T11:28:15.084Z,39.40
2018-03-04T11:29:15.517Z,39.11
2018-03-04T11:30:15.961Z,39.13
2018-03-04T11:31:16.385Z,38.37
2018-03-04T11:32:16.808Z,38.09
2018-03-04T11:33:17.242Z,38.35
2018-03-04T11:34:17.679Z,39.01
2018-03-04T11:35:18.111Z,39.68
2018-03-04T11:36:18.541Z,39.59
2018-03-04T11:37:18.980Z,39.87
2018-03-04T11:38:19.414Z,39.11
2018-03-04T11:39:19.886Z,39.78
2018-03-04T11:40:20.271Z,39.40
2018-03-04T11:41:20.709Z,39.59
2018-03-04T11:42:21.134Z,39.68
2018-03-04T11:43:21.583Z,39.85
2018-03-04T11:44:22.002Z,40.42
2018-03-04T11:45:22.429Z,40.89
2018-03-04T11:46:22.869Z,40.89
2018-03-04T11:47:23.303Z,41.66
2018-03-04T11:48:23.732Z,41.92
2018-03-04T11:49:24.167Z,41.92
2018-03-04T11:50:24.613Z,42.68
2018-03-04T11:51:25.024Z,42.49
2018-03-04T11:52:25.484Z,42.96
2018-03-04T11:53:25.880Z,43.34
2018-03-04T11:54:26.328Z,43.62
2018-03-04T11:55:26.747Z,44.08
2018-03-04T11:56:27.237Z,44.46
2018-03-04T11:57:27.603Z,44.65
2018-03-04T11:58:28.043Z,45.03
2018-03-04T11:59:28.488Z,45.31
2018-03-04T12:00:28.875Z,45.78
2018-03-04T12:01:29.304Z,45.95
2018-03-04T12:02:29.745Z,46.33
2018-03-04T12:03:30.160Z,47.18
2018-03-04T12:04:30.577Z,47.28
2018-03-04T12:05:31.020Z,47.72
2018-03-04T12:06:31.437Z,48.03
2018-03-04T12:07:31.859Z,48.39
2018-03-04T12:08:32.279Z,48.79
2018-03-04T12:09:32.716Z,48.89
2018-03-04T12:10:33.138Z,49.17
2018-03-04T12:11:33.562Z,49.24
2018-03-04T12:12:33.969Z,49.65
2018-03-04T12:13:34.394Z,49.52
2018-03-04T12:14:34.811Z,49.52
2018-03-04T12:15:35.242Z,50.19
2018-03-04T12:16:35.664Z,50.09
2018-03-04T12:17:36.082Z,50.09
2018-03-04T12:18:36.542Z,50.00
2018-03-04T12:19:36.931Z,50.49
2018-03-04T12:20:37.385Z,49.93
2018-03-04T12:21:37.768Z,49.36
2018-03-04T12:22:38.209Z,49.74
2018-03-04T12:23:38.620Z,49.27
2018-03-04T12:24:39.041Z,49.46
2018-03-04T12:25:39.458Z,49.27
2018-03-04T12:26:39.903Z,49.36
2018-03-04T12:27:40.310Z,49.46
2018-03-04T12:28:40.726Z,48.98
2018-03-04T12:29:41.161Z,48.89
2018-03-04T12:30:41.566Z,48.89
2018-03-04T12:31:41.985Z,48.70
2018-03-04T12:32:42.407Z,49.46
2018-03-04T12:33:42.913Z,49.36
2018-03-04T12:34:43.266Z,50.02
2018-03-04T12:35:43.671Z,49.46
2018-03-04T12:36:44.181Z,49.65
2018-03-04T12:37:44.524Z,49.46
2018-03-04T12:38:44.941Z,49.46
2018-03-04T12:39:45.364Z,49.55
2018-03-04T12:40:45.779Z,49.74
2018-03-04T12:41:46.250Z,49.27
2018-03-04T12:42:46.650Z,49.55
2018-03-04T12:43:47.053Z,49.55
2018-03-04T12:44:47.468Z,49.36
2018-03-04T12:45:47.884Z,49.27
2018-03-04T12:46:48.329Z,49.27
2018-03-04T12:47:48.746Z,49.27
2018-03-04T12:48:49.154Z,48.89
2018-03-04T12:49:49.612Z,48.60
2018-03-04T12:50:49.994Z,48.70
2018-03-04T12:51:50.416Z,48.79
2018-03-04T12:52:50.839Z,48.79
2018-03-04T12:53:51.260Z,48.70
2018-03-04T12:54:51.685Z,48.70
2018-03-04T12:55:52.112Z,48.70
2018-03-04T12:56:52.556Z,48.79
2018-03-04T12:57:52.950Z,48.60
2018-03-04T12:58:53.370Z,49.36